createdAt,value
2023-10-13T00:01:53.035Z,7.60
2023-10-13T00:04:23.965Z,7.80
2023-10-13T00:06:52.386Z,8.23
2023-10-13T00:09:21.540Z,8.13
2023-10-13T00:11:49.086Z,7.97
2023-10-13T00:14:18.117Z,7.97
2023-10-13T00:17:01.898Z,8.30
2023-10-13T00:19:38.706Z,7.77
2023-10-13T00:22:11.735Z,8.17
2023-10-13T00:24:44.931Z,7.87
2023-10-13T00:27:30.114Z,8.57
2023-10-13T00:30:12.300Z,8.70
2023-10-13T00:32:43.648Z,9.03
2023-10-13T00:35:16.570Z,7.97
2023-10-13T00:37:45.599Z,8.27
2023-10-13T00:40:38.922Z,8.37
2023-10-13T00:43:29.044Z,8.53
2023-10-13T00:45:59.007Z,8.27
2023-10-13T00:48:34.097Z,8.73
2023-10-13T00:51:04.173Z,8.27
2023-10-13T00:53:34.480Z,8.93
2023-10-13T00:56:07.292Z,8.43
2023-10-13T00:58:35.870Z,8.63
2023-10-13T01:01:17.954Z,8.60
2023-10-13T01:03:49.593Z,9.13
2023-10-13T01:06:19.237Z,9.20
2023-10-13T01:08:51.851Z,9.10
2023-10-13T01:11:19.707Z,9.33
2023-10-13T01:13:52.017Z,9.37
2023-10-13T01:16:18.662Z,9.33
2023-10-13T01:18:49.487Z,9.83
2023-10-13T01:21:21.119Z,9.27
2023-10-13T01:23:51.946Z,8.77
2023-10-13T01:26:24.704Z,9.50
2023-10-13T01:28:55.497Z,8.93
2023-10-13T01:31:31.364Z,9.10
2023-10-13T01:34:00.784Z,9.00
2023-10-13T01:36:28.123Z,9.70
2023-10-13T01:38:56.982Z,8.97
2023-10-13T01:41:23.650Z,9.30
2023-10-13T01:43:51.249Z,9.27
2023-10-13T01:46:20.628Z,8.70
2023-10-13T01:48:48.265Z,8.97
2023-10-13T01:51:14.930Z,9.40
2023-10-13T01:53:43.383Z,8.90
2023-10-13T01:56:11.336Z,9.67
2023-10-13T01:58:42.892Z,9.03
2023-10-13T02:01:11.046Z,9.27
2023-10-13T02:03:43.636Z,8.77
2023-10-13T02:06:12.490Z,8.87
2023-10-13T02:08:44.446Z,8.90
2023-10-13T02:11:12.413Z,9.20
2023-10-13T02:13:43.910Z,9.57
2023-10-13T02:16:12.893Z,9.50
2023-10-13T02:18:44.462Z,9.13
2023-10-13T02:21:14.110Z,9.53
2023-10-13T02:23:46.091Z,9.33
2023-10-13T02:26:15.779Z,9.60
2023-10-13T02:28:45.140Z,9.70
2023-10-13T02:31:12.613Z,10.20
2023-10-13T02:33:45.920Z,9.13
2023-10-13T02:36:13.670Z,9.33
2023-10-13T02:38:47.342Z,9.77
2023-10-13T02:41:21.514Z,9.60
2023-10-13T02:43:49.009Z,10.23
2023-10-13T02:46:17.234Z,9.13
2023-10-13T02:48:47.144Z,9.23
2023-10-13T02:51:17.636Z,8.97
2023-10-13T02:53:48.421Z,9.40
2023-10-13T02:56:21.618Z,8.90
2023-10-13T02:58:54.236Z,9.20
2023-10-13T03:01:21.876Z,8.73
2023-10-13T03:03:56.618Z,9.67
2023-10-13T03:06:33.108Z,9.57
2023-10-13T03:09:15.614Z,10.03
2023-10-13T03:11:43.773Z,8.83
2023-10-13T03:14:24.713Z,8.87
2023-10-13T03:16:52.765Z,8.93
2023-10-13T03:19:21.465Z,9.00
2023-10-13T03:21:55.906Z,8.57
2023-10-13T03:24:34.381Z,8.70
2023-10-13T03:27:10.631Z,8.73
2023-10-13T03:29:38.091Z,8.73
2023-10-13T03:32:12.645Z,8.43
2023-10-13T03:34:53.725Z,8.73
2023-10-13T03:37:38.216Z,9.23
2023-10-13T03:40:08.301Z,8.80
2023-10-13T03:42:40.933Z,8.90
2023-10-13T03:45:11.844Z,9.00
2023-10-13T03:47:39.733Z,8.80
2023-10-13T03:50:17.878Z,9.70
2023-10-13T03:52:45.669Z,9.13
2023-10-13T03:55:18.901Z,8.43
2023-10-13T03:57:51.288Z,9.37
2023-10-13T04:00:25.025Z,8.83
2023-10-13T04:03:05.173Z,8.67
2023-10-13T04:05:40.428Z,9.77
2023-10-13T04:08:26.218Z,8.80
2023-10-13T04:11:12.552Z,8.70
2023-10-13T04:13:59.249Z,9.03
2023-10-13T04:16:51.917Z,8.77
2023-10-13T04:19:25.330Z,9.37
2023-10-13T04:22:15.258Z,9.40
2023-10-13T04:25:00.592Z,9.47
2023-10-13T04:27:55.125Z,9.20
2023-10-13T04:30:27.963Z,9.57
2023-10-13T04:33:21.353Z,9.07
2023-10-13T04:35:59.850Z,9.47
2023-10-13T04:38:34.561Z,9.40
2023-10-13T04:41:11.105Z,9.20
2023-10-13T04:43:56.650Z,9.60
2023-10-13T04:46:40.923Z,9.17
2023-10-13T04:49:28.450Z,9.50
2023-10-13T04:52:02.282Z,10.03
2023-10-13T04:54:46.339Z,9.90
2023-10-13T04:57:24.835Z,8.57
2023-10-13T05:00:16.732Z,9.20
2023-10-13T05:03:17.554Z,8.73
2023-10-13T05:05:46.833Z,8.90
2023-10-13T05:08:31.961Z,9.13
2023-10-13T05:11:17.339Z,9.40
2023-10-13T05:14:02.708Z,9.63
2023-10-13T05:16:48.242Z,9.33
2023-10-13T05:19:34.889Z,9.80
2023-10-13T05:22:20.162Z,9.83
2023-10-13T05:25:10.734Z,8.90
2023-10-13T05:27:56.022Z,9.27
2023-10-13T05:30:41.296Z,9.10
2023-10-13T05:33:26.658Z,9.13
2023-10-13T05:36:13.329Z,8.87
2023-10-13T05:38:58.530Z,9.20
2023-10-13T05:41:43.905Z,9.23
2023-10-13T05:44:29.280Z,9.50
2023-10-13T05:47:45.416Z,9.00
2023-10-13T05:50:49.725Z,8.87
2023-10-13T05:53:36.175Z,8.37
2023-10-13T05:56:21.981Z,8.70
2023-10-13T05:59:07.177Z,9.17
2023-10-13T06:01:52.627Z,8.60
2023-10-13T06:04:38.128Z,9.07
2023-10-13T06:07:23.512Z,8.27
2023-10-13T06:10:11.181Z,8.70
2023-10-13T06:12:56.502Z,9.00
2023-10-13T06:15:41.796Z,8.30
2023-10-13T06:18:27.242Z,8.73
2023-10-13T06:21:12.720Z,8.87
2023-10-13T06:23:58.041Z,8.60
2023-10-13T06:26:44.699Z,8.40
2023-10-13T06:29:13.440Z,8.93
2023-10-13T06:31:47.212Z,9.03
2023-10-13T06:34:16.839Z,8.60
2023-10-13T06:36:47.522Z,8.63
2023-10-13T06:39:36.059Z,8.07
2023-10-13T06:42:05.075Z,8.73
2023-10-13T06:44:33.217Z,8.50
2023-10-13T06:47:05.077Z,8.20
2023-10-13T06:49:39.867Z,8.10
2023-10-13T06:52:07.769Z,9.07
2023-10-13T06:54:36.054Z,8.50
2023-10-13T06:57:08.197Z,8.03
2023-10-13T06:59:37.637Z,8.13
2023-10-13T07:02:24.766Z,8.27
2023-10-13T07:04:58.213Z,9.00
2023-10-13T07:07:25.999Z,7.90
2023-10-13T07:09:59.237Z,7.83
2023-10-13T07:12:28.667Z,8.40
2023-10-13T07:15:01.027Z,7.87
2023-10-13T07:17:34.065Z,8.03
2023-10-13T07:20:16.584Z,8.20
2023-10-13T07:22:56.073Z,7.83
2023-10-13T07:25:27.114Z,8.03
2023-10-13T07:27:58.013Z,8.07
2023-10-13T07:30:28.054Z,7.97
2023-10-13T07:32:58.855Z,8.10
2023-10-13T07:35:26.499Z,8.17
2023-10-13T07:37:54.637Z,8.20
2023-10-13T07:40:40.924Z,8.00
2023-10-13T07:43:13.936Z,7.03
2023-10-13T07:45:42.761Z,8.07
2023-10-13T07:48:18.109Z,7.77
2023-10-13T07:50:46.703Z,7.90
2023-10-13T07:53:31.186Z,8.13
2023-10-13T07:56:03.969Z,8.23
2023-10-13T07:58:34.226Z,7.93
2023-10-13T08:01:08.732Z,7.90
2023-10-13T08:03:53.473Z,8.33
2023-10-13T08:06:27.251Z,7.80
2023-10-13T08:09:08.461Z,7.70
2023-10-13T08:11:38.013Z,8.37
2023-10-13T08:14:35.487Z,8.23
2023-10-13T08:17:08.870Z,7.97
2023-10-13T08:19:43.058Z,7.77
2023-10-13T08:22:26.446Z,8.53
2023-10-13T08:24:59.969Z,8.37
2023-10-13T08:27:36.466Z,8.00
2023-10-13T08:30:24.370Z,7.63
2023-10-13T08:32:57.960Z,7.70
2023-10-13T08:35:35.447Z,8.03
2023-10-13T08:38:29.079Z,8.03
2023-10-13T08:41:26.010Z,7.30
2023-10-13T08:44:02.238Z,7.80
2023-10-13T08:46:52.699Z,7.97
2023-10-13T08:49:24.894Z,7.73
2023-10-13T08:52:06.821Z,7.40
2023-10-13T08:54:46.081Z,7.20
2023-10-13T08:57:34.334Z,7.43
2023-10-13T09:00:16.237Z,7.73
2023-10-13T09:03:17.235Z,7.30
2023-10-13T09:06:01.930Z,8.13
2023-10-13T09:08:36.805Z,8.40
2023-10-13T09:11:13.190Z,8.00
2023-10-13T09:13:46.053Z,7.43
2023-10-13T09:16:18.662Z,7.53
2023-10-13T09:18:53.313Z,7.10
2023-10-13T09:21:38.288Z,7.33
2023-10-13T09:24:28.591Z,6.87
2023-10-13T09:26:57.483Z,7.20
2023-10-13T09:29:26.009Z,6.90
2023-10-13T09:32:04.827Z,6.95
2023-10-13T09:34:41.647Z,6.55
2023-10-13T09:37:11.538Z,6.45
2023-10-13T09:39:45.768Z,6.32
2023-10-13T09:42:18.610Z,6.82
2023-10-13T09:44:52.391Z,6.28
2023-10-13T09:47:30.825Z,6.10
2023-10-13T09:50:07.293Z,6.28
2023-10-13T09:52:34.367Z,6.53
2023-10-13T09:55:12.424Z,6.65
2023-10-13T09:57:45.712Z,6.40
2023-10-13T10:00:45.884Z,6.65
2023-10-13T10:03:16.383Z,6.82
2023-10-13T10:06:04.524Z,6.32
2023-10-13T10:08:34.892Z,6.60
2023-10-13T10:11:48.844Z,6.53
2023-10-13T10:14:22.040Z,6.05
2023-10-13T10:17:08.978Z,6.10
2023-10-13T10:19:48.277Z,6.00
2023-10-13T10:22:28.399Z,5.63
2023-10-13T10:24:58.938Z,6.00
2023-10-13T10:27:27.281Z,6.18
2023-10-13T10:29:55.264Z,5.93
2023-10-13T10:32:22.948Z,6.30
2023-10-13T10:34:50.614Z,5.88
2023-10-13T10:37:19.671Z,5.30
2023-10-13T10:39:47.264Z,5.70
2023-10-13T10:42:18.289Z,6.03
2023-10-13T10:44:49.206Z,6.22
2023-10-13T10:47:31.738Z,6.28
2023-10-13T10:50:01.099Z,5.95
2023-10-13T10:52:37.950Z,6.10
2023-10-13T10:55:08.581Z,6.10
2023-10-13T10:57:38.312Z,5.78
2023-10-13T11:00:15.636Z,6.00
2023-10-13T11:02:43.240Z,5.93
2023-10-13T11:05:11.656Z,5.82
2023-10-13T11:07:50.864Z,5.60
2023-10-13T11:10:27.831Z,5.63
2023-10-13T11:13:12.859Z,6.15
2023-10-13T11:15:45.538Z,5.80
2023-10-13T11:18:18.235Z,6.05
2023-10-13T11:20:45.928Z,6.63
2023-10-13T11:23:15.189Z,7.32
2023-10-13T11:25:45.680Z,6.20
2023-10-13T11:28:20.798Z,5.97
2023-10-13T11:30:51.559Z,6.10
2023-10-13T11:33:24.452Z,6.43
2023-10-13T11:35:57.439Z,6.38
2023-10-13T11:38:27.522Z,5.80
2023-10-13T11:41:13.895Z,5.97
2023-10-13T11:44:08.628Z,6.20
2023-10-13T11:46:55.915Z,5.93
2023-10-13T11:49:35.353Z,5.72
2023-10-13T11:52:18.308Z,6.22
2023-10-13T11:54:48.202Z,5.75
2023-10-13T11:57:19.046Z,6.05
2023-10-13T11:59:54.042Z,5.75
2023-10-13T12:02:40.719Z,6.47
2023-10-13T12:05:17.880Z,5.80
2023-10-13T12:07:50.283Z,5.90
2023-10-13T12:10:34.650Z,6.05
2023-10-13T12:13:09.092Z,5.57
2023-10-13T12:15:49.339Z,6.00
2023-10-13T12:18:17.835Z,5.95
2023-10-13T12:20:47.466Z,5.95
2023-10-13T12:23:20.619Z,5.97
2023-10-13T12:26:20.036Z,5.30
2023-10-13T12:28:52.713Z,5.75
2023-10-13T12:31:27.824Z,5.40
2023-10-13T12:33:58.808Z,5.00
2023-10-13T12:36:32.378Z,5.10
2023-10-13T12:39:17.715Z,5.10
2023-10-13T12:42:04.203Z,5.38
2023-10-13T12:45:00.989Z,4.93
2023-10-13T12:47:46.251Z,5.55
2023-10-13T12:50:27.352Z,5.78
2023-10-13T12:52:55.033Z,5.55
2023-10-13T12:55:25.949Z,5.30
2023-10-13T12:57:55.000Z,5.38
2023-10-13T13:00:26.880Z,4.93
2023-10-13T13:02:57.342Z,5.00
2023-10-13T13:05:29.764Z,5.15
2023-10-13T13:07:57.626Z,5.20
2023-10-13T13:10:37.077Z,6.00
2023-10-13T13:13:07.277Z,5.50
2023-10-13T13:15:34.851Z,5.15
2023-10-13T13:18:11.693Z,5.65
2023-10-13T13:20:45.092Z,5.18
2023-10-13T13:23:14.796Z,5.43
2023-10-13T13:25:44.508Z,4.93
2023-10-13T13:28:13.410Z,4.97
2023-10-13T13:30:42.763Z,5.03
2023-10-13T13:33:13.043Z,5.07
2023-10-13T13:35:43.749Z,4.90
2023-10-13T13:38:23.338Z,5.28
2023-10-13T13:40:55.070Z,5.00
2023-10-13T13:43:40.869Z,5.05
2023-10-13T13:46:11.397Z,4.80
2023-10-13T13:48:39.652Z,5.25
2023-10-13T13:51:15.206Z,4.93
2023-10-13T13:53:46.169Z,5.10
2023-10-13T13:56:17.297Z,4.68
2023-10-13T13:58:47.373Z,4.30
2023-10-13T14:01:16.278Z,4.55
2023-10-13T14:03:47.280Z,4.75
2023-10-13T14:06:19.550Z,4.50
2023-10-13T14:08:49.369Z,4.32
2023-10-13T14:11:35.678Z,4.80
2023-10-13T14:14:05.449Z,4.90
2023-10-13T14:16:34.680Z,4.40
2023-10-13T14:19:03.102Z,4.47
2023-10-13T14:21:30.643Z,4.25
2023-10-13T14:24:01.675Z,4.30
2023-10-13T14:26:29.904Z,4.50
2023-10-13T14:29:03.129Z,4.30
2023-10-13T14:31:33.624Z,4.65
2023-10-13T14:34:01.195Z,4.25
2023-10-13T14:36:29.770Z,4.43
2023-10-13T14:38:58.097Z,4.40
2023-10-13T14:41:25.932Z,4.40
2023-10-13T14:43:53.465Z,4.03
2023-10-13T14:46:24.174Z,4.30
2023-10-13T14:48:55.123Z,4.13
2023-10-13T14:51:22.902Z,4.13
2023-10-13T14:53:53.407Z,4.60
2023-10-13T14:56:20.979Z,4.25
2023-10-13T14:58:48.528Z,3.90
2023-10-13T15:01:17.105Z,4.13
2023-10-13T15:03:44.782Z,4.30
2023-10-13T15:06:19.615Z,4.28
2023-10-13T15:08:48.093Z,4.10
2023-10-13T15:11:16.069Z,4.10
2023-10-13T15:13:43.786Z,4.18
2023-10-13T15:16:17.932Z,4.10
2023-10-13T15:18:46.751Z,4.25
2023-10-13T15:21:22.524Z,3.88
2023-10-13T15:23:52.239Z,4.10
2023-10-13T15:26:21.998Z,4.18
2023-10-13T15:28:50.570Z,4.10
2023-10-13T15:31:26.797Z,4.32
2023-10-13T15:33:56.566Z,4.63
2023-10-13T15:36:25.940Z,4.63
2023-10-13T15:38:53.967Z,4.53
2023-10-13T15:41:27.611Z,4.38
2023-10-13T15:43:55.743Z,4.13
2023-10-13T15:47:33.702Z,3.83
2023-10-13T15:49:15.886Z,3.95
2023-10-13T15:51:45.021Z,4.50
2023-10-13T15:54:18.594Z,4.40
2023-10-13T15:56:46.892Z,4.25
2023-10-13T15:59:14.750Z,4.63
2023-10-13T16:01:43.070Z,4.60
2023-10-13T16:04:12.785Z,4.28
2023-10-13T16:06:41.052Z,4.30
2023-10-13T16:09:15.136Z,4.50
2023-10-13T16:11:44.283Z,4.38
2023-10-13T16:14:16.539Z,4.45
2023-10-13T16:16:47.789Z,4.55
2023-10-13T16:19:18.271Z,4.50
2023-10-13T16:21:47.686Z,4.28
2023-10-13T16:24:18.787Z,4.25
2023-10-13T16:26:50.262Z,4.38
2023-10-13T16:29:17.970Z,3.92
2023-10-13T16:31:47.352Z,4.20
2023-10-13T16:34:16.750Z,4.00
2023-10-13T16:36:45.460Z,3.88
2023-10-13T16:39:15.822Z,3.92
2023-10-13T16:41:46.349Z,4.15
2023-10-13T16:44:14.156Z,3.83
2023-10-13T16:46:42.218Z,3.72
2023-10-13T16:49:12.229Z,3.63
2023-10-13T16:51:41.465Z,3.58
2023-10-13T16:54:09.604Z,3.67
2023-10-13T16:56:39.476Z,3.97
2023-10-13T16:59:08.643Z,3.80
2023-10-13T17:01:36.383Z,3.90
2023-10-13T17:04:05.727Z,4.07
2023-10-13T17:06:33.973Z,4.20
2023-10-13T17:09:04.742Z,4.00
2023-10-13T17:11:32.352Z,4.10
2023-10-13T17:14:00.119Z,3.97
2023-10-13T17:16:31.920Z,3.80
2023-10-13T17:18:59.827Z,3.88
2023-10-13T17:21:29.431Z,3.40
2023-10-13T17:23:57.423Z,3.92
2023-10-13T17:26:27.771Z,4.03
2023-10-13T17:28:59.465Z,4.35
2023-10-13T17:31:29.114Z,4.07
2023-10-13T17:33:59.309Z,4.22
2023-10-13T17:36:28.830Z,4.22
2023-10-13T17:38:56.328Z,4.28
2023-10-13T17:41:24.419Z,4.50
2023-10-13T17:43:52.129Z,4.63
2023-10-13T17:46:22.055Z,4.60
2023-10-13T17:48:51.227Z,4.22
2023-10-13T17:51:18.739Z,4.22
2023-10-13T17:53:47.308Z,4.13
2023-10-13T17:56:19.369Z,4.50
2023-10-13T17:58:47.524Z,4.38
2023-10-13T18:01:19.684Z,4.60
2023-10-13T18:03:49.270Z,4.18
2023-10-13T18:06:18.634Z,4.63
2023-10-13T18:08:46.304Z,4.20
2023-10-13T18:11:14.752Z,4.30
2023-10-13T18:13:42.986Z,4.28
2023-10-13T18:16:15.605Z,4.45
2023-10-13T18:18:43.742Z,4.38
2023-10-13T18:21:13.096Z,4.30
2023-10-13T18:23:43.762Z,4.40
2023-10-13T18:26:12.936Z,4.63
2023-10-13T18:28:41.151Z,4.47
2023-10-13T18:31:12.138Z,3.90
2023-10-13T18:33:41.769Z,3.90
2023-10-13T18:36:14.503Z,4.33
2023-10-13T18:38:44.384Z,4.43
2023-10-13T18:41:12.380Z,4.90
2023-10-13T18:43:41.575Z,4.90
2023-10-13T18:46:10.710Z,4.50
2023-10-13T18:48:39.363Z,5.03
2023-10-13T18:51:07.997Z,4.67
2023-10-13T18:53:36.181Z,5.17
2023-10-13T18:56:10.578Z,5.27
2023-10-13T18:58:40.548Z,5.20
2023-10-13T19:01:16.900Z,5.07
2023-10-13T19:03:45.638Z,4.97
2023-10-13T19:06:16.252Z,4.63
2023-10-13T19:08:43.762Z,5.17
2023-10-13T19:11:13.260Z,4.53
2023-10-13T19:13:43.774Z,4.90
2023-10-13T19:16:13.519Z,4.63
2023-10-13T19:18:42.157Z,4.30
2023-10-13T19:21:15.773Z,4.43
2023-10-13T19:23:43.637Z,4.33
2023-10-13T19:26:14.127Z,4.20
2023-10-13T19:28:43.473Z,4.10
2023-10-13T19:31:16.650Z,4.23
2023-10-13T19:33:45.502Z,4.40
2023-10-13T19:36:14.124Z,4.40
2023-10-13T19:38:42.019Z,4.37
2023-10-13T19:41:18.572Z,4.70
2023-10-13T19:43:46.947Z,4.43
2023-10-13T19:46:14.800Z,4.10
2023-10-13T19:48:42.530Z,4.20
2023-10-13T19:51:11.750Z,4.20
2023-10-13T19:53:43.206Z,4.47
2023-10-13T19:56:14.374Z,4.37
2023-10-13T19:58:43.196Z,4.60
2023-10-13T20:01:11.867Z,4.00
2023-10-13T20:03:42.171Z,3.87
2023-10-13T20:06:10.481Z,4.20
2023-10-13T20:08:38.587Z,4.30
2023-10-13T20:11:10.684Z,4.40
2023-10-13T20:13:38.154Z,4.17
2023-10-13T20:16:08.135Z,4.00
2023-10-13T20:18:35.841Z,4.60
2023-10-13T20:21:05.226Z,4.10
2023-10-13T20:23:32.712Z,4.23
2023-10-13T20:26:00.222Z,4.10
2023-10-13T20:28:28.145Z,4.00
2023-10-13T20:30:59.534Z,3.93
2023-10-13T20:33:30.185Z,4.37
2023-10-13T20:35:57.712Z,4.13
2023-10-13T20:38:26.293Z,4.13
2023-10-13T20:41:02.093Z,4.10
2023-10-13T20:43:30.173Z,4.03
2023-10-13T20:45:59.335Z,3.87
2023-10-13T20:48:31.832Z,3.87
2023-10-13T20:51:00.189Z,4.10
2023-10-13T20:53:28.794Z,3.70
2023-10-13T20:56:01.314Z,4.00
2023-10-13T20:58:28.837Z,3.70
2023-10-13T21:00:56.656Z,3.80
2023-10-13T21:03:25.240Z,3.80
2023-10-13T21:05:56.273Z,3.43
2023-10-13T21:08:24.217Z,3.70
2023-10-13T21:10:53.461Z,3.43
2023-10-13T21:13:21.439Z,4.13
2023-10-13T21:15:48.965Z,3.50
2023-10-13T21:18:18.502Z,3.47
2023-10-13T21:20:46.073Z,3.50
2023-10-13T21:23:14.880Z,3.47
2023-10-13T21:25:42.787Z,3.20
2023-10-13T21:28:10.627Z,3.37
2023-10-13T21:30:39.335Z,3.20
2023-10-13T21:33:08.955Z,3.30
2023-10-13T21:35:38.211Z,3.00
2023-10-13T21:38:06.219Z,3.40
2023-10-13T21:40:35.099Z,3.93
2023-10-13T21:43:06.834Z,3.40
2023-10-13T21:45:36.760Z,3.30
2023-10-13T21:48:10.751Z,3.37
2023-10-13T21:50:43.259Z,3.70
2023-10-13T21:53:13.030Z,3.80
2023-10-13T21:55:42.021Z,3.60
2023-10-13T21:58:09.905Z,3.53
2023-10-13T22:01:00.104Z,3.63
2023-10-13T22:03:30.581Z,3.90
2023-10-13T22:06:01.588Z,3.90
2023-10-13T22:08:30.210Z,3.47
2023-10-13T22:11:01.247Z,3.77
2023-10-13T22:13:28.746Z,3.60
2023-10-13T22:15:56.271Z,3.60
2023-10-13T22:18:23.866Z,3.43
2023-10-13T22:20:52.196Z,4.00
2023-10-13T22:23:19.634Z,3.70
2023-10-13T22:25:47.283Z,4.03
2023-10-13T22:28:17.865Z,3.70
2023-10-13T22:30:45.423Z,3.83
2023-10-13T22:33:13.508Z,3.73
2023-10-13T22:35:42.198Z,3.80
2023-10-13T22:38:10.026Z,3.47
2023-10-13T22:40:42.045Z,3.80
2023-10-13T22:43:09.600Z,3.67
2023-10-13T22:45:38.562Z,3.73
2023-10-13T22:48:07.305Z,3.80
2023-10-13T22:50:35.790Z,3.60
2023-10-13T22:53:06.695Z,3.50
2023-10-13T22:55:37.456Z,3.50
2023-10-13T22:58:10.476Z,3.77
2023-10-13T23:00:49.680Z,3.53
2023-10-13T23:03:19.399Z,3.63
2023-10-13T23:05:54.226Z,3.80
2023-10-13T23:08:23.324Z,3.67
2023-10-13T23:10:52.603Z,3.90
2023-10-13T23:13:21.237Z,4.03
2023-10-13T23:15:54.481Z,3.90
2023-10-13T23:18:24.499Z,3.97
2023-10-13T23:20:52.667Z,3.80
2023-10-13T23:23:20.196Z,4.00
2023-10-13T23:25:47.750Z,4.03
2023-10-13T23:28:29.849Z,3.87
2023-10-13T23:31:06.071Z,4.13
2023-10-13T23:33:33.763Z,4.00
2023-10-13T23:36:04.248Z,3.50
2023-10-13T23:38:35.305Z,3.73
2023-10-13T23:41:06.198Z,4.03
2023-10-13T23:43:44.008Z,4.07
2023-10-13T23:46:14.525Z,4.20
2023-10-13T23:48:44.831Z,3.83
2023-10-13T23:51:13.683Z,4.10
2023-10-13T23:53:46.156Z,3.83
2023-10-13T23:56:15.783Z,3.50
2023-10-13T23:58:44.998Z,3.87
